sensor_id;sensor_type;location;lat;lon;timestamp;temperature;humidity
65188;SHT30;51775;51.148;6.950;2023-02-11T00:01:39;20.38;35.28
65188;SHT30;51775;51.148;6.950;2023-02-11T00:04:05;20.35;35.09
65188;SHT30;51775;51.148;6.950;2023-02-11T00:06:32;20.35;34.70
65188;SHT30;51775;51.148;6.950;2023-02-11T00:08:58;20.32;35.33
65188;SHT30;51775;51.148;6.950;2023-02-11T00:11:25;20.33;35.35
65188;SHT30;51775;51.148;6.950;2023-02-11T00:13:51;20.32;35.10
65188;SHT30;51775;51.148;6.950;2023-02-11T00:16:19;20.29;34.84
65188;SHT30;51775;51.148;6.950;2023-02-11T00:18:44;20.30;35.04
65188;SHT30;51775;51.148;6.950;2023-02-11T00:21:15;20.28;35.23
65188;SHT30;51775;51.148;6.950;2023-02-11T00:23:41;20.28;35.18
65188;SHT30;51775;51.148;6.950;2023-02-11T00:26:11;20.28;35.28
65188;SHT30;51775;51.148;6.950;2023-02-11T00:28:37;20.29;35.19
65188;SHT30;51775;51.148;6.950;2023-02-11T00:31:02;20.25;34.86
65188;SHT30;51775;51.148;6.950;2023-02-11T00:33:27;20.25;34.77
65188;SHT30;51775;51.148;6.950;2023-02-11T00:35:53;20.25;34.73
65188;SHT30;51775;51.148;6.950;2023-02-11T00:38:18;20.24;35.16
65188;SHT30;51775;51.148;6.950;2023-02-11T00:40:43;20.24;35.08
65188;SHT30;51775;51.148;6.950;2023-02-11T00:43:08;20.22;35.12
65188;SHT30;51775;51.148;6.950;2023-02-11T00:45:34;20.21;34.92
65188;SHT30;51775;51.148;6.950;2023-02-11T00:47:59;20.22;35.09
65188;SHT30;51775;51.148;6.950;2023-02-11T00:50:24;20.24;35.04
65188;SHT30;51775;51.148;6.950;2023-02-11T00:52:50;20.24;35.04
65188;SHT30;51775;51.148;6.950;2023-02-11T00:55:16;20.19;35.13
65188;SHT30;51775;51.148;6.950;2023-02-11T00:57:41;20.18;34.87
65188;SHT30;51775;51.148;6.950;2023-02-11T01:00:08;20.19;34.88
65188;SHT30;51775;51.148;6.950;2023-02-11T01:02:33;20.17;34.86
65188;SHT30;51775;51.148;6.950;2023-02-11T01:04:59;20.18;35.15
65188;SHT30;51775;51.148;6.950;2023-02-11T01:07:25;20.14;35.10
65188;SHT30;51775;51.148;6.950;2023-02-11T01:09:51;20.14;34.85
65188;SHT30;51775;51.148;6.950;2023-02-11T01:12:16;20.12;35.03
65188;SHT30;51775;51.148;6.950;2023-02-11T01:14:42;20.08;34.91
65188;SHT30;51775;51.148;6.950;2023-02-11T01:17:07;20.08;35.06
65188;SHT30;51775;51.148;6.950;2023-02-11T01:19:32;20.07;35.28
65188;SHT30;51775;51.148;6.950;2023-02-11T01:21:57;20.01;35.08
65188;SHT30;51775;51.148;6.950;2023-02-11T01:24:23;20.00;35.16
65188;SHT30;51775;51.148;6.950;2023-02-11T01:26:48;19.97;35.12
65188;SHT30;51775;51.148;6.950;2023-02-11T01:29:13;19.95;35.14
65188;SHT30;51775;51.148;6.950;2023-02-11T01:31:38;19.95;35.20
65188;SHT30;51775;51.148;6.950;2023-02-11T01:34:04;19.95;35.34
65188;SHT30;51775;51.148;6.950;2023-02-11T01:36:29;19.94;35.25
65188;SHT30;51775;51.148;6.950;2023-02-11T01:38:54;19.92;35.46
65188;SHT30;51775;51.148;6.950;2023-02-11T01:41:19;19.90;35.55
65188;SHT30;51775;51.148;6.950;2023-02-11T01:43:48;19.90;35.34
65188;SHT30;51775;51.148;6.950;2023-02-11T01:46:33;19.87;35.43
65188;SHT30;51775;51.148;6.950;2023-02-11T01:49:14;19.85;35.35
65188;SHT30;51775;51.148;6.950;2023-02-11T01:51:49;19.87;35.59
65188;SHT30;51775;51.148;6.950;2023-02-11T01:54:18;19.84;35.48
65188;SHT30;51775;51.148;6.950;2023-02-11T01:56:48;19.81;35.41
65188;SHT30;51775;51.148;6.950;2023-02-11T01:59:40;19.80;35.64
65188;SHT30;51775;51.148;6.950;2023-02-11T02:02:10;19.81;35.64
65188;SHT30;51775;51.148;6.950;2023-02-11T02:04:43;19.82;35.58
65188;SHT30;51775;51.148;6.950;2023-02-11T02:07:21;19.78;35.40
65188;SHT30;51775;51.148;6.950;2023-02-11T02:09:57;19.78;35.59
65188;SHT30;51775;51.148;6.950;2023-02-11T02:12:23;19.78;35.76
65188;SHT30;51775;51.148;6.950;2023-02-11T02:14:48;19.77;35.56
65188;SHT30;51775;51.148;6.950;2023-02-11T02:17:25;19.73;35.63
65188;SHT30;51775;51.148;6.950;2023-02-11T02:25:25;19.73;35.69
65188;SHT30;51775;51.148;6.950;2023-02-11T02:33:21;19.70;35.84
65188;SHT30;51775;51.148;6.950;2023-02-11T02:38:39;19.66;35.96
65188;SHT30;51775;51.148;6.950;2023-02-11T02:41:07;19.64;35.78
65188;SHT30;51775;51.148;6.950;2023-02-11T02:43:35;19.69;35.92
65188;SHT30;51775;51.148;6.950;2023-02-11T02:46:19;19.62;35.83
65188;SHT30;51775;51.148;6.950;2023-02-11T02:48:45;19.63;35.82
65188;SHT30;51775;51.148;6.950;2023-02-11T03:09:39;19.56;36.10
65188;SHT30;51775;51.148;6.950;2023-02-11T03:12:06;19.59;36.01
65188;SHT30;51775;51.148;6.950;2023-02-11T03:14:32;19.56;36.01
65188;SHT30;51775;51.148;6.950;2023-02-11T03:17:03;19.54;36.11
65188;SHT30;51775;51.148;6.950;2023-02-11T03:19:43;19.56;36.08
65188;SHT30;51775;51.148;6.950;2023-02-11T03:22:21;19.54;36.01
65188;SHT30;51775;51.148;6.950;2023-02-11T03:24:47;19.52;36.13
65188;SHT30;51775;51.148;6.950;2023-02-11T03:29:54;19.53;36.19
65188;SHT30;51775;51.148;6.950;2023-02-11T03:32:31;19.52;36.09
65188;SHT30;51775;51.148;6.950;2023-02-11T03:35:04;19.49;36.27
65188;SHT30;51775;51.148;6.950;2023-02-11T03:37:42;19.52;36.30
65188;SHT30;51775;51.148;6.950;2023-02-11T03:40:18;19.49;36.25
65188;SHT30;51775;51.148;6.950;2023-02-11T03:43:07;19.47;36.17
65188;SHT30;51775;51.148;6.950;2023-02-11T03:45:35;19.49;36.19
65188;SHT30;51775;51.148;6.950;2023-02-11T03:48:21;19.50;36.19
65188;SHT30;51775;51.148;6.950;2023-02-11T03:50:49;19.46;36.21
65188;SHT30;51775;51.148;6.950;2023-02-11T03:53:16;19.40;36.31
65188;SHT30;51775;51.148;6.950;2023-02-11T03:55:44;19.46;36.40
65188;SHT30;51775;51.148;6.950;2023-02-11T03:58:11;19.45;36.25
65188;SHT30;51775;51.148;6.950;2023-02-11T04:00:39;19.47;36.41
65188;SHT30;51775;51.148;6.950;2023-02-11T04:03:05;19.46;36.34
65188;SHT30;51775;51.148;6.950;2023-02-11T04:05:30;19.47;36.27
65188;SHT30;51775;51.148;6.950;2023-02-11T04:07:56;19.47;36.24
65188;SHT30;51775;51.148;6.950;2023-02-11T04:10:21;19.49;36.30
65188;SHT30;51775;51.148;6.950;2023-02-11T04:12:46;19.45;36.28
65188;SHT30;51775;51.148;6.950;2023-02-11T04:15:12;19.50;36.41
65188;SHT30;51775;51.148;6.950;2023-02-11T04:17:37;19.47;36.23
65188;SHT30;51775;51.148;6.950;2023-02-11T04:20:03;19.49;36.38
65188;SHT30;51775;51.148;6.950;2023-02-11T04:22:29;19.49;36.37
65188;SHT30;51775;51.148;6.950;2023-02-11T04:24:54;19.49;36.43
65188;SHT30;51775;51.148;6.950;2023-02-11T04:27:19;19.45;36.44
65188;SHT30;51775;51.148;6.950;2023-02-11T04:29:45;19.49;36.47
65188;SHT30;51775;51.148;6.950;2023-02-11T04:32:11;19.39;36.69
65188;SHT30;51775;51.148;6.950;2023-02-11T04:34:36;19.40;36.73
65188;SHT30;51775;51.148;6.950;2023-02-11T04:37:02;19.43;36.62
65188;SHT30;51775;51.148;6.950;2023-02-11T04:39:27;19.49;36.58
65188;SHT30;51775;51.148;6.950;2023-02-11T04:41:53;19.42;36.67
65188;SHT30;51775;51.148;6.950;2023-02-11T04:44:18;19.50;36.64
65188;SHT30;51775;51.148;6.950;2023-02-11T04:46:43;19.45;36.60
65188;SHT30;51775;51.148;6.950;2023-02-11T04:49:12;19.50;36.61
65188;SHT30;51775;51.148;6.950;2023-02-11T04:51:37;19.52;36.51
65188;SHT30;51775;51.148;6.950;2023-02-11T04:54:03;19.57;36.50
65188;SHT30;51775;51.148;6.950;2023-02-11T04:56:28;19.59;36.49
65188;SHT30;51775;51.148;6.950;2023-02-11T04:58:53;19.62;36.41
65188;SHT30;51775;51.148;6.950;2023-02-11T05:01:19;19.57;36.46
65188;SHT30;51775;51.148;6.950;2023-02-11T05:03:44;19.60;36.38
65188;SHT30;51775;51.148;6.950;2023-02-11T05:06:10;19.63;36.42
65188;SHT30;51775;51.148;6.950;2023-02-11T05:08:35;19.62;36.31
65188;SHT30;51775;51.148;6.950;2023-02-11T05:11:01;19.63;36.51
65188;SHT30;51775;51.148;6.950;2023-02-11T05:13:27;19.63;36.48
65188;SHT30;51775;51.148;6.950;2023-02-11T05:15:52;19.63;36.48
65188;SHT30;51775;51.148;6.950;2023-02-11T05:18:18;19.64;36.58
65188;SHT30;51775;51.148;6.950;2023-02-11T05:20:43;19.63;36.54
65188;SHT30;51775;51.148;6.950;2023-02-11T05:23:09;19.66;36.59
65188;SHT30;51775;51.148;6.950;2023-02-11T05:25:35;19.59;36.62
65188;SHT30;51775;51.148;6.950;2023-02-11T05:28:00;19.66;36.58
65188;SHT30;51775;51.148;6.950;2023-02-11T05:30:26;19.69;36.59
65188;SHT30;51775;51.148;6.950;2023-02-11T05:32:51;19.69;36.54
65188;SHT30;51775;51.148;6.950;2023-02-11T05:35:16;19.71;36.54
65188;SHT30;51775;51.148;6.950;2023-02-11T05:37:42;19.74;36.52
65188;SHT30;51775;51.148;6.950;2023-02-11T05:40:07;19.78;36.49
65188;SHT30;51775;51.148;6.950;2023-02-11T05:42:33;19.81;36.45
65188;SHT30;51775;51.148;6.950;2023-02-11T05:44:58;19.78;36.47
65188;SHT30;51775;51.148;6.950;2023-02-11T05:47:23;19.84;36.40
65188;SHT30;51775;51.148;6.950;2023-02-11T05:49:49;19.90;36.33
65188;SHT30;51775;51.148;6.950;2023-02-11T05:52:14;19.90;36.39
65188;SHT30;51775;51.148;6.950;2023-02-11T05:54:39;19.94;36.33
65188;SHT30;51775;51.148;6.950;2023-02-11T05:57:04;19.94;36.34
65188;SHT30;51775;51.148;6.950;2023-02-11T05:59:30;19.98;36.34
65188;SHT30;51775;51.148;6.950;2023-02-11T06:01:55;20.01;36.29
65188;SHT30;51775;51.148;6.950;2023-02-11T06:04:20;20.04;36.27
65188;SHT30;51775;51.148;6.950;2023-02-11T06:06:46;19.95;36.39
65188;SHT30;51775;51.148;6.950;2023-02-11T06:09:11;20.04;36.29
65188;SHT30;51775;51.148;6.950;2023-02-11T06:11:37;19.97;36.38
65188;SHT30;51775;51.148;6.950;2023-02-11T06:14:02;20.07;36.35
65188;SHT30;51775;51.148;6.950;2023-02-11T06:16:27;20.01;36.47
65188;SHT30;51775;51.148;6.950;2023-02-11T06:18:53;20.09;36.39
65188;SHT30;51775;51.148;6.950;2023-02-11T06:21:18;20.04;36.60
65188;SHT30;51775;51.148;6.950;2023-02-11T06:23:43;20.12;36.40
65188;SHT30;51775;51.148;6.950;2023-02-11T06:26:16;20.07;36.50
65188;SHT30;51775;51.148;6.950;2023-02-11T06:28:41;20.09;36.52
65188;SHT30;51775;51.148;6.950;2023-02-11T06:31:07;20.07;36.67
65188;SHT30;51775;51.148;6.950;2023-02-11T06:33:33;20.05;36.79
65188;SHT30;51775;51.148;6.950;2023-02-11T06:35:58;20.05;36.79
65188;SHT30;51775;51.148;6.950;2023-02-11T06:38:23;20.12;36.76
65188;SHT30;51775;51.148;6.950;2023-02-11T06:40:49;20.18;36.80
65188;SHT30;51775;51.148;6.950;2023-02-11T06:43:15;20.19;36.90
65188;SHT30;51775;51.148;6.950;2023-02-11T06:45:40;20.22;36.96
65188;SHT30;51775;51.148;6.950;2023-02-11T06:48:05;20.17;37.07
65188;SHT30;51775;51.148;6.950;2023-02-11T06:50:31;20.24;37.13
65188;SHT30;51775;51.148;6.950;2023-02-11T06:52:58;20.17;37.30
65188;SHT30;51775;51.148;6.950;2023-02-11T06:55:24;20.15;37.28
65188;SHT30;51775;51.148;6.950;2023-02-11T06:57:49;20.18;37.25
65188;SHT30;51775;51.148;6.950;2023-02-11T07:00:15;20.15;37.25
65188;SHT30;51775;51.148;6.950;2023-02-11T07:02:40;20.17;37.33
65188;SHT30;51775;51.148;6.950;2023-02-11T07:05:06;20.25;37.29
65188;SHT30;51775;51.148;6.950;2023-02-11T07:07:31;20.25;37.30
65188;SHT30;51775;51.148;6.950;2023-02-11T07:09:57;20.26;37.26
65188;SHT30;51775;51.148;6.950;2023-02-11T07:12:22;20.25;37.24
65188;SHT30;51775;51.148;6.950;2023-02-11T07:14:48;20.28;37.19
65188;SHT30;51775;51.148;6.950;2023-02-11T07:17:13;20.28;37.23
65188;SHT30;51775;51.148;6.950;2023-02-11T07:19:39;20.29;37.18
65188;SHT30;51775;51.148;6.950;2023-02-11T07:22:04;20.32;37.08
65188;SHT30;51775;51.148;6.950;2023-02-11T07:24:29;20.30;37.14
65188;SHT30;51775;51.148;6.950;2023-02-11T07:26:55;20.32;37.08
65188;SHT30;51775;51.148;6.950;2023-02-11T07:29:20;20.32;37.17
65188;SHT30;51775;51.148;6.950;2023-02-11T07:31:45;20.36;37.03
65188;SHT30;51775;51.148;6.950;2023-02-11T07:34:10;20.38;37.00
65188;SHT30;51775;51.148;6.950;2023-02-11T07:36:36;20.38;37.01
65188;SHT30;51775;51.148;6.950;2023-02-11T07:39:01;20.38;37.04
65188;SHT30;51775;51.148;6.950;2023-02-11T07:41:27;20.40;36.99
65188;SHT30;51775;51.148;6.950;2023-02-11T07:43:52;20.39;36.97
65188;SHT30;51775;51.148;6.950;2023-02-11T07:46:22;20.42;36.97
65188;SHT30;51775;51.148;6.950;2023-02-11T07:48:48;20.42;36.93
65188;SHT30;51775;51.148;6.950;2023-02-11T07:51:22;20.38;37.01
65188;SHT30;51775;51.148;6.950;2023-02-11T07:53:48;20.39;37.08
65188;SHT30;51775;51.148;6.950;2023-02-11T07:56:15;20.40;36.95
65188;SHT30;51775;51.148;6.950;2023-02-11T07:58:41;20.42;36.97
65188;SHT30;51775;51.148;6.950;2023-02-11T08:01:11;20.39;36.98
65188;SHT30;51775;51.148;6.950;2023-02-11T08:03:37;20.42;36.94
65188;SHT30;51775;51.148;6.950;2023-02-11T08:06:04;20.46;36.98
65188;SHT30;51775;51.148;6.950;2023-02-11T08:08:30;20.49;36.94
65188;SHT30;51775;51.148;6.950;2023-02-11T08:10:55;20.45;36.95
65188;SHT30;51775;51.148;6.950;2023-02-11T08:13:20;20.43;36.97
65188;SHT30;51775;51.148;6.950;2023-02-11T08:15:46;20.46;36.93
65188;SHT30;51775;51.148;6.950;2023-02-11T08:18:11;20.48;36.96
65188;SHT30;51775;51.148;6.950;2023-02-11T08:20:36;20.48;36.94
65188;SHT30;51775;51.148;6.950;2023-02-11T08:23:01;20.49;36.90
65188;SHT30;51775;51.148;6.950;2023-02-11T08:25:27;20.48;37.00
65188;SHT30;51775;51.148;6.950;2023-02-11T08:27:52;20.46;36.96
65188;SHT30;51775;51.148;6.950;2023-02-11T08:30:18;20.49;37.00
65188;SHT30;51775;51.148;6.950;2023-02-11T08:32:43;20.50;36.96
65188;SHT30;51775;51.148;6.950;2023-02-11T08:35:08;20.49;36.97
65188;SHT30;51775;51.148;6.950;2023-02-11T08:37:34;20.52;36.96
65188;SHT30;51775;51.148;6.950;2023-02-11T08:39:59;20.50;37.02
65188;SHT30;51775;51.148;6.950;2023-02-11T08:42:24;20.53;36.98
65188;SHT30;51775;51.148;6.950;2023-02-11T08:44:50;20.53;37.02
65188;SHT30;51775;51.148;6.950;2023-02-11T08:47:15;20.52;37.03
65188;SHT30;51775;51.148;6.950;2023-02-11T08:49:40;20.53;37.13
65188;SHT30;51775;51.148;6.950;2023-02-11T08:52:05;20.55;36.99
65188;SHT30;51775;51.148;6.950;2023-02-11T08:54:31;20.52;37.13
65188;SHT30;51775;51.148;6.950;2023-02-11T08:56:57;20.52;37.12
65188;SHT30;51775;51.148;6.950;2023-02-11T08:59:22;20.56;37.06
65188;SHT30;51775;51.148;6.950;2023-02-11T09:01:47;20.56;37.03
65188;SHT30;51775;51.148;6.950;2023-02-11T09:04:13;20.56;37.05
65188;SHT30;51775;51.148;6.950;2023-02-11T09:06:39;20.60;37.02
65188;SHT30;51775;51.148;6.950;2023-02-11T09:09:04;20.59;37.05
65188;SHT30;51775;51.148;6.950;2023-02-11T09:11:33;20.59;37.07
65188;SHT30;51775;51.148;6.950;2023-02-11T09:13:59;20.57;37.09
65188;SHT30;51775;51.148;6.950;2023-02-11T09:16:29;20.59;37.14
65188;SHT30;51775;51.148;6.950;2023-02-11T09:18:59;20.59;37.17
65188;SHT30;51775;51.148;6.950;2023-02-11T09:21:25;20.60;37.14
65188;SHT30;51775;51.148;6.950;2023-02-11T09:23:51;20.60;37.17
65188;SHT30;51775;51.148;6.950;2023-02-11T09:26:28;20.63;37.14
65188;SHT30;51775;51.148;6.950;2023-02-11T09:28:54;20.62;37.17
65188;SHT30;51775;51.148;6.950;2023-02-11T09:31:22;20.56;37.34
65188;SHT30;51775;51.148;6.950;2023-02-11T09:33:50;20.65;37.17
65188;SHT30;51775;51.148;6.950;2023-02-11T09:36:22;20.60;37.24
65188;SHT30;51775;51.148;6.950;2023-02-11T09:38:48;20.63;37.24
65188;SHT30;51775;51.148;6.950;2023-02-11T09:43:52;20.63;37.21
65188;SHT30;51775;51.148;6.950;2023-02-11T09:46:18;20.60;37.27
65188;SHT30;51775;51.148;6.950;2023-02-11T09:48:46;20.63;37.28
65188;SHT30;51775;51.148;6.950;2023-02-11T09:51:32;20.65;37.26
65188;SHT30;51775;51.148;6.950;2023-02-11T09:54:06;20.63;37.21
65188;SHT30;51775;51.148;6.950;2023-02-11T09:56:35;20.63;37.24
65188;SHT30;51775;51.148;6.950;2023-02-11T09:59:00;20.65;37.30
65188;SHT30;51775;51.148;6.950;2023-02-11T10:14:59;20.66;37.35
65188;SHT30;51775;51.148;6.950;2023-02-11T10:17:34;20.63;37.36
65188;SHT30;51775;51.148;6.950;2023-02-11T10:22:48;20.62;37.45
65188;SHT30;51775;51.148;6.950;2023-02-11T10:25:24;20.65;37.37
65188;SHT30;51775;51.148;6.950;2023-02-11T10:27:51;20.63;37.49
65188;SHT30;51775;51.148;6.950;2023-02-11T10:30:28;20.66;37.40
65188;SHT30;51775;51.148;6.950;2023-02-11T10:35:43;20.62;37.51
65188;SHT30;51775;51.148;6.950;2023-02-11T10:38:10;20.66;37.50
65188;SHT30;51775;51.148;6.950;2023-02-11T10:40:35;20.62;37.53
65188;SHT30;51775;51.148;6.950;2023-02-11T10:43:03;20.65;37.51
65188;SHT30;51775;51.148;6.950;2023-02-11T10:45:36;20.63;37.48
65188;SHT30;51775;51.148;6.950;2023-02-11T10:48:04;20.62;37.53
65188;SHT30;51775;51.148;6.950;2023-02-11T10:50:32;20.65;37.56
65188;SHT30;51775;51.148;6.950;2023-02-11T10:53:17;20.63;37.57
65188;SHT30;51775;51.148;6.950;2023-02-11T10:55:50;20.65;37.52
65188;SHT30;51775;51.148;6.950;2023-02-11T10:58:29;20.60;37.56
65188;SHT30;51775;51.148;6.950;2023-02-11T11:00:56;20.62;37.57
65188;SHT30;51775;51.148;6.950;2023-02-11T11:03:25;20.62;37.58
65188;SHT30;51775;51.148;6.950;2023-02-11T11:06:01;20.63;37.61
65188;SHT30;51775;51.148;6.950;2023-02-11T11:08:44;20.65;37.57
65188;SHT30;51775;51.148;6.950;2023-02-11T11:11:12;20.62;37.61
65188;SHT30;51775;51.148;6.950;2023-02-11T11:13:40;20.62;37.62
65188;SHT30;51775;51.148;6.950;2023-02-11T11:18:38;20.63;37.63
65188;SHT30;51775;51.148;6.950;2023-02-11T11:21:05;20.63;37.63
65188;SHT30;51775;51.148;6.950;2023-02-11T11:23:33;20.62;37.71
65188;SHT30;51775;51.148;6.950;2023-02-11T11:26:11;20.62;37.66
65188;SHT30;51775;51.148;6.950;2023-02-11T11:28:48;20.65;37.65
65188;SHT30;51775;51.148;6.950;2023-02-11T11:31:29;20.66;37.64
65188;SHT30;51775;51.148;6.950;2023-02-11T11:33:58;20.63;37.64
65188;SHT30;51775;51.148;6.950;2023-02-11T11:36:40;20.65;37.69
65188;SHT30;51775;51.148;6.950;2023-02-11T11:39:18;20.62;37.70
65188;SHT30;51775;51.148;6.950;2023-02-11T11:41:53;20.66;37.71
65188;SHT30;51775;51.148;6.950;2023-02-11T11:44:33;20.65;37.72
65188;SHT30;51775;51.148;6.950;2023-02-11T11:49:42;20.67;37.69
65188;SHT30;51775;51.148;6.950;2023-02-11T11:54:50;20.69;37.67
65188;SHT30;51775;51.148;6.950;2023-02-11T11:57:25;20.70;37.68
65188;SHT30;51775;51.148;6.950;2023-02-11T11:59:51;20.70;37.64
65188;SHT30;51775;51.148;6.950;2023-02-11T12:05:10;20.69;37.64
65188;SHT30;51775;51.148;6.950;2023-02-11T12:07:54;20.70;37.65
65188;SHT30;51775;51.148;6.950;2023-02-11T12:10:42;20.72;37.67
65188;SHT30;51775;51.148;6.950;2023-02-11T12:13:23;20.72;37.69
65188;SHT30;51775;51.148;6.950;2023-02-11T12:26:51;20.76;37.66
65188;SHT30;51775;51.148;6.950;2023-02-11T12:32:09;20.76;37.72
65188;SHT30;51775;51.148;6.950;2023-02-11T12:37:22;20.77;37.72
65188;SHT30;51775;51.148;6.950;2023-02-11T12:40:02;20.77;37.69
65188;SHT30;51775;51.148;6.950;2023-02-11T12:53:09;20.76;37.75
65188;SHT30;51775;51.148;6.950;2023-02-11T12:55:39;20.73;37.81
65188;SHT30;51775;51.148;6.950;2023-02-11T12:58:12;20.77;37.80
65188;SHT30;51775;51.148;6.950;2023-02-11T13:00:47;20.76;37.79
65188;SHT30;51775;51.148;6.950;2023-02-11T13:03:39;20.79;37.83
65188;SHT30;51775;51.148;6.950;2023-02-11T13:06:09;20.79;37.87
65188;SHT30;51775;51.148;6.950;2023-02-11T13:08:48;20.74;37.83
65188;SHT30;51775;51.148;6.950;2023-02-11T13:11:20;20.76;37.85
65188;SHT30;51775;51.148;6.950;2023-02-11T13:14:14;20.77;37.95
65188;SHT30;51775;51.148;6.950;2023-02-11T13:16:45;20.77;37.81
65188;SHT30;51775;51.148;6.950;2023-02-11T13:19:20;20.76;37.86
65188;SHT30;51775;51.148;6.950;2023-02-11T13:22:04;20.76;37.93
65188;SHT30;51775;51.148;6.950;2023-02-11T13:33:02;20.72;38.24
65188;SHT30;51775;51.148;6.950;2023-02-11T13:37:56;20.73;38.01
65188;SHT30;51775;51.148;6.950;2023-02-11T13:40:26;20.73;38.06
65188;SHT30;51775;51.148;6.950;2023-02-11T13:42:58;20.76;38.07
65188;SHT30;51775;51.148;6.950;2023-02-11T13:45:40;20.73;38.07
65188;SHT30;51775;51.148;6.950;2023-02-11T13:48:23;20.76;38.01
65188;SHT30;51775;51.148;6.950;2023-02-11T13:50:52;20.76;38.07
65188;SHT30;51775;51.148;6.950;2023-02-11T13:53:18;20.74;38.06
65188;SHT30;51775;51.148;6.950;2023-02-11T13:55:46;20.73;38.12
65188;SHT30;51775;51.148;6.950;2023-02-11T13:58:15;20.74;38.13
65188;SHT30;51775;51.148;6.950;2023-02-11T14:00:44;20.73;38.08
65188;SHT30;51775;51.148;6.950;2023-02-11T14:05:36;20.73;38.16
65188;SHT30;51775;51.148;6.950;2023-02-11T14:13:27;20.73;38.19
65188;SHT30;51775;51.148;6.950;2023-02-11T14:18:35;20.72;38.26
65188;SHT30;51775;51.148;6.950;2023-02-11T14:21:16;20.73;38.33
65188;SHT30;51775;51.148;6.950;2023-02-11T14:23:43;20.74;38.23
65188;SHT30;51775;51.148;6.950;2023-02-11T14:31:51;20.72;38.27
65188;SHT30;51775;51.148;6.950;2023-02-11T14:34:40;20.72;38.31
65188;SHT30;51775;51.148;6.950;2023-02-11T14:37:28;20.72;38.33
65188;SHT30;51775;51.148;6.950;2023-02-11T14:40:14;20.67;38.38
65188;SHT30;51775;51.148;6.950;2023-02-11T14:42:41;20.70;38.35
65188;SHT30;51775;51.148;6.950;2023-02-11T14:45:14;20.70;38.33
65188;SHT30;51775;51.148;6.950;2023-02-11T14:50:23;20.70;38.38
65188;SHT30;51775;51.148;6.950;2023-02-11T14:52:50;20.69;38.34
65188;SHT30;51775;51.148;6.950;2023-02-11T14:57:41;20.69;38.40
65188;SHT30;51775;51.148;6.950;2023-02-11T15:00:21;20.67;38.45
65188;SHT30;51775;51.148;6.950;2023-02-11T15:02:47;20.66;38.48
65188;SHT30;51775;51.148;6.950;2023-02-11T15:05:24;20.69;38.41
65188;SHT30;51775;51.148;6.950;2023-02-11T15:07:55;20.69;38.44
65188;SHT30;51775;51.148;6.950;2023-02-11T15:10:28;20.66;38.48
65188;SHT30;51775;51.148;6.950;2023-02-11T15:12:55;20.62;38.56
65188;SHT30;51775;51.148;6.950;2023-02-11T15:15:20;20.63;38.56
65188;SHT30;51775;51.148;6.950;2023-02-11T15:17:46;20.63;38.59
65188;SHT30;51775;51.148;6.950;2023-02-11T15:20:21;20.63;38.59
65188;SHT30;51775;51.148;6.950;2023-02-11T15:22:51;20.63;38.51
65188;SHT30;51775;51.148;6.950;2023-02-11T15:25:18;20.63;38.60
65188;SHT30;51775;51.148;6.950;2023-02-11T15:27:51;20.62;38.58
65188;SHT30;51775;51.148;6.950;2023-02-11T15:32:49;20.60;38.61
65188;SHT30;51775;51.148;6.950;2023-02-11T15:35:15;20.62;38.60
65188;SHT30;51775;51.148;6.950;2023-02-11T15:37:40;20.65;38.56
65188;SHT30;51775;51.148;6.950;2023-02-11T15:40:21;20.63;38.63
65188;SHT30;51775;51.148;6.950;2023-02-11T15:43:01;20.63;38.54
65188;SHT30;51775;51.148;6.950;2023-02-11T15:48:10;20.62;38.64
65188;SHT30;51775;51.148;6.950;2023-02-11T15:50:37;20.60;38.69
65188;SHT30;51775;51.148;6.950;2023-02-11T15:55:53;20.62;38.70
65188;SHT30;51775;51.148;6.950;2023-02-11T15:58:21;20.59;38.68
65188;SHT30;51775;51.148;6.950;2023-02-11T16:00:50;20.59;38.70
65188;SHT30;51775;51.148;6.950;2023-02-11T16:03:20;20.60;38.70
65188;SHT30;51775;51.148;6.950;2023-02-11T16:05:46;20.57;38.74
65188;SHT30;51775;51.148;6.950;2023-02-11T16:08:19;20.60;38.70
65188;SHT30;51775;51.148;6.950;2023-02-11T16:10:58;20.59;38.91
65188;SHT30;51775;51.148;6.950;2023-02-11T16:13:25;20.60;38.74
65188;SHT30;51775;51.148;6.950;2023-02-11T16:15:56;20.59;38.85
65188;SHT30;51775;51.148;6.950;2023-02-11T16:18:28;20.56;39.23
65188;SHT30;51775;51.148;6.950;2023-02-11T16:20:54;20.60;39.21
65188;SHT30;51775;51.148;6.950;2023-02-11T16:23:26;20.62;39.19
65188;SHT30;51775;51.148;6.950;2023-02-11T16:26:35;20.62;39.25
65188;SHT30;51775;51.148;6.950;2023-02-11T16:31:34;20.70;39.28
65188;SHT30;51775;51.148;6.950;2023-02-11T16:34:00;20.70;39.37
65188;SHT30;51775;51.148;6.950;2023-02-11T16:36:25;20.69;39.37
65188;SHT30;51775;51.148;6.950;2023-02-11T16:38:50;20.69;39.42
65188;SHT30;51775;51.148;6.950;2023-02-11T16:41:15;20.67;39.44
65188;SHT30;51775;51.148;6.950;2023-02-11T16:43:41;20.72;39.34
65188;SHT30;51775;51.148;6.950;2023-02-11T16:46:06;20.72;39.47
65188;SHT30;51775;51.148;6.950;2023-02-11T16:48:31;20.73;39.50
65188;SHT30;51775;51.148;6.950;2023-02-11T16:50:57;20.72;39.52
65188;SHT30;51775;51.148;6.950;2023-02-11T16:53:23;20.72;39.54
65188;SHT30;51775;51.148;6.950;2023-02-11T16:55:50;20.76;39.50
65188;SHT30;51775;51.148;6.950;2023-02-11T16:58:15;20.76;39.49
65188;SHT30;51775;51.148;6.950;2023-02-11T17:00:41;20.74;39.39
65188;SHT30;51775;51.148;6.950;2023-02-11T17:03:09;20.73;39.47
65188;SHT30;51775;51.148;6.950;2023-02-11T17:05:43;20.72;39.47
65188;SHT30;51775;51.148;6.950;2023-02-11T17:08:10;20.70;39.57
65188;SHT30;51775;51.148;6.950;2023-02-11T17:10:35;20.70;39.50
65188;SHT30;51775;51.148;6.950;2023-02-11T17:13:01;20.76;39.66
65188;SHT30;51775;51.148;6.950;2023-02-11T17:15:26;20.81;39.52
65188;SHT30;51775;51.148;6.950;2023-02-11T17:17:51;20.84;39.48
65188;SHT30;51775;51.148;6.950;2023-02-11T17:20:16;20.87;39.46
65188;SHT30;51775;51.148;6.950;2023-02-11T17:22:42;20.87;39.37
65188;SHT30;51775;51.148;6.950;2023-02-11T17:25:07;20.90;39.25
65188;SHT30;51775;51.148;6.950;2023-02-11T17:27:32;20.88;39.22
65188;SHT30;51775;51.148;6.950;2023-02-11T17:29:58;20.90;39.24
65188;SHT30;51775;51.148;6.950;2023-02-11T17:32:23;20.91;39.46
65188;SHT30;51775;51.148;6.950;2023-02-11T17:34:48;20.84;39.07
65188;SHT30;51775;51.148;6.950;2023-02-11T17:37:14;20.79;39.14
65188;SHT30;51775;51.148;6.950;2023-02-11T17:39:39;20.79;39.14
65188;SHT30;51775;51.148;6.950;2023-02-11T17:42:05;20.80;39.18
65188;SHT30;51775;51.148;6.950;2023-02-11T17:44:31;20.81;39.13
65188;SHT30;51775;51.148;6.950;2023-02-11T17:46:57;20.79;39.17
65188;SHT30;51775;51.148;6.950;2023-02-11T17:49:22;20.83;39.07
65188;SHT30;51775;51.148;6.950;2023-02-11T17:51:47;20.79;39.14
65188;SHT30;51775;51.148;6.950;2023-02-11T17:54:15;20.81;39.08
65188;SHT30;51775;51.148;6.950;2023-02-11T17:56:41;20.81;39.14